sensor_id;sensor_type;location;lat;lon;timestamp;temperature;humidity
9973;DHT22;5027;53.560;10.062;2023-02-28T00:00:35;9.80;92.50
9973;DHT22;5027;53.560;10.062;2023-02-28T00:03:03;9.80;92.40
9973;DHT22;5027;53.560;10.062;2023-02-28T00:05:30;9.80;92.30
9973;DHT22;5027;53.560;10.062;2023-02-28T00:07:56;9.90;92.30
9973;DHT22;5027;53.560;10.062;2023-02-28T00:10:26;9.90;92.10
9973;DHT22;5027;53.560;10.062;2023-02-28T00:12:55;9.80;92.20
9973;DHT22;5027;53.560;10.062;2023-02-28T00:15:23;9.70;92.10
9973;DHT22;5027;53.560;10.062;2023-02-28T00:17:51;9.70;92.30
9973;DHT22;5027;53.560;10.062;2023-02-28T00:20:18;9.70;92.40
9973;DHT22;5027;53.560;10.062;2023-02-28T00:22:49;9.70;92.30
9973;DHT22;5027;53.560;10.062;2023-02-28T00:25:18;9.70;92.30
9973;DHT22;5027;53.560;10.062;2023-02-28T00:27:46;9.60;92.30
9973;DHT22;5027;53.560;10.062;2023-02-28T00:30:20;9.60;92.30
9973;DHT22;5027;53.560;10.062;2023-02-28T00:32:47;9.60;92.40
9973;DHT22;5027;53.560;10.062;2023-02-28T00:35:14;9.60;92.60
9973;DHT22;5027;53.560;10.062;2023-02-28T00:37:40;9.50;92.40
9973;DHT22;5027;53.560;10.062;2023-02-28T00:40:08;9.60;92.60
9973;DHT22;5027;53.560;10.062;2023-02-28T00:42:36;9.60;92.30
9973;DHT22;5027;53.560;10.062;2023-02-28T00:45:03;9.60;92.30
9973;DHT22;5027;53.560;10.062;2023-02-28T00:47:31;9.60;92.30
9973;DHT22;5027;53.560;10.062;2023-02-28T00:49:58;9.70;92.30
9973;DHT22;5027;53.560;10.062;2023-02-28T00:52:25;9.70;92.30
9973;DHT22;5027;53.560;10.062;2023-02-28T00:54:53;9.70;92.10
9973;DHT22;5027;53.560;10.062;2023-02-28T00:57:20;9.70;92.10
9973;DHT22;5027;53.560;10.062;2023-02-28T00:59:47;9.60;92.20
9973;DHT22;5027;53.560;10.062;2023-02-28T01:02:14;9.50;92.20
9973;DHT22;5027;53.560;10.062;2023-02-28T01:04:41;9.50;92.70
9973;DHT22;5027;53.560;10.062;2023-02-28T01:07:08;9.50;92.70
9973;DHT22;5027;53.560;10.062;2023-02-28T01:09:34;9.50;92.80
9973;DHT22;5027;53.560;10.062;2023-02-28T01:12:01;9.50;92.70
9973;DHT22;5027;53.560;10.062;2023-02-28T01:14:28;9.50;93.10
9973;DHT22;5027;53.560;10.062;2023-02-28T01:16:54;9.50;93.00
9973;DHT22;5027;53.560;10.062;2023-02-28T01:19:21;9.40;92.80
9973;DHT22;5027;53.560;10.062;2023-02-28T01:21:47;9.40;92.80
9973;DHT22;5027;53.560;10.062;2023-02-28T01:24:14;9.30;92.90
9973;DHT22;5027;53.560;10.062;2023-02-28T01:26:41;9.30;92.60
9973;DHT22;5027;53.560;10.062;2023-02-28T01:29:07;9.20;92.60
9973;DHT22;5027;53.560;10.062;2023-02-28T01:31:34;9.30;92.80
9973;DHT22;5027;53.560;10.062;2023-02-28T01:34:01;9.40;93.00
9973;DHT22;5027;53.560;10.062;2023-02-28T01:36:28;9.40;93.00
9973;DHT22;5027;53.560;10.062;2023-02-28T01:38:55;9.50;93.20
9973;DHT22;5027;53.560;10.062;2023-02-28T01:41:28;9.40;93.00
9973;DHT22;5027;53.560;10.062;2023-02-28T01:44:05;9.40;93.00
9973;DHT22;5027;53.560;10.062;2023-02-28T01:46:34;9.50;92.80
9973;DHT22;5027;53.560;10.062;2023-02-28T01:49:06;9.50;92.90
9973;DHT22;5027;53.560;10.062;2023-02-28T01:51:43;9.50;92.90
9973;DHT22;5027;53.560;10.062;2023-02-28T01:54:22;9.40;92.70
9973;DHT22;5027;53.560;10.062;2023-02-28T01:56:55;9.40;93.00
9973;DHT22;5027;53.560;10.062;2023-02-28T01:59:36;9.40;92.70
9973;DHT22;5027;53.560;10.062;2023-02-28T02:02:04;9.40;93.00
9973;DHT22;5027;53.560;10.062;2023-02-28T02:07:20;9.40;93.00
9973;DHT22;5027;53.560;10.062;2023-02-28T02:09:47;9.40;93.00
9973;DHT22;5027;53.560;10.062;2023-02-28T02:12:27;9.40;93.00
9973;DHT22;5027;53.560;10.062;2023-02-28T02:15:05;9.30;92.90
9973;DHT22;5027;53.560;10.062;2023-02-28T02:17:50;9.30;92.80
9973;DHT22;5027;53.560;10.062;2023-02-28T02:23:31;9.30;93.10
9973;DHT22;5027;53.560;10.062;2023-02-28T02:26:33;9.20;92.80
9973;DHT22;5027;53.560;10.062;2023-02-28T02:29:45;9.20;92.90
9973;DHT22;5027;53.560;10.062;2023-02-28T02:38:09;9.10;92.90
9973;DHT22;5027;53.560;10.062;2023-02-28T02:40:57;9.10;92.90
9973;DHT22;5027;53.560;10.062;2023-02-28T02:43:30;9.00;1.00
9973;DHT22;5027;53.560;10.062;2023-02-28T02:46:04;8.90;1.00
9973;DHT22;5027;53.560;10.062;2023-02-28T02:48:34;8.80;1.00
9973;DHT22;5027;53.560;10.062;2023-02-28T02:51:07;8.90;1.00
9973;DHT22;5027;53.560;10.062;2023-02-28T02:53:52;8.90;1.00
9973;DHT22;5027;53.560;10.062;2023-02-28T02:56:25;8.90;1.00
9973;DHT22;5027;53.560;10.062;2023-02-28T02:58:58;8.90;1.00
9973;DHT22;5027;53.560;10.062;2023-02-28T03:01:29;8.90;1.00
9973;DHT22;5027;53.560;10.062;2023-02-28T03:03:59;8.80;1.00
9973;DHT22;5027;53.560;10.062;2023-02-28T03:06:27;8.80;1.00
9973;DHT22;5027;53.560;10.062;2023-02-28T03:08:54;8.80;1.00
9973;DHT22;5027;53.560;10.062;2023-02-28T03:11:22;8.80;1.00
9973;DHT22;5027;53.560;10.062;2023-02-28T03:13:52;8.80;1.00
9973;DHT22;5027;53.560;10.062;2023-02-28T03:16:44;8.70;1.00
9973;DHT22;5027;53.560;10.062;2023-02-28T03:28:06;8.70;1.00
9973;DHT22;5027;53.560;10.062;2023-02-28T03:30:54;8.60;1.00
9973;DHT22;5027;53.560;10.062;2023-02-28T03:33:26;8.50;1.00
9973;DHT22;5027;53.560;10.062;2023-02-28T03:35:58;8.40;1.00
9973;DHT22;5027;53.560;10.062;2023-02-28T03:41:12;8.40;1.00
9973;DHT22;5027;53.560;10.062;2023-02-28T03:43:44;8.50;1.00
9973;DHT22;5027;53.560;10.062;2023-02-28T03:46:16;8.50;1.00
9973;DHT22;5027;53.560;10.062;2023-02-28T03:49:02;8.50;1.00
9973;DHT22;5027;53.560;10.062;2023-02-28T03:51:32;8.50;1.00
9973;DHT22;5027;53.560;10.062;2023-02-28T03:54:06;8.40;1.00
9973;DHT22;5027;53.560;10.062;2023-02-28T03:56:57;8.40;1.00
9973;DHT22;5027;53.560;10.062;2023-02-28T03:59:30;8.40;1.00
9973;DHT22;5027;53.560;10.062;2023-02-28T04:01:59;8.40;1.00
9973;DHT22;5027;53.560;10.062;2023-02-28T04:04:26;8.40;1.00
9973;DHT22;5027;53.560;10.062;2023-02-28T04:07:02;8.40;1.00
9973;DHT22;5027;53.560;10.062;2023-02-28T04:09:29;8.40;1.00
9973;DHT22;5027;53.560;10.062;2023-02-28T04:11:56;8.40;1.00
9973;DHT22;5027;53.560;10.062;2023-02-28T04:14:23;8.30;1.00
9973;DHT22;5027;53.560;10.062;2023-02-28T04:16:50;8.40;1.00
9973;DHT22;5027;53.560;10.062;2023-02-28T04:19:17;8.30;1.00
9973;DHT22;5027;53.560;10.062;2023-02-28T04:21:47;8.30;1.00
9973;DHT22;5027;53.560;10.062;2023-02-28T04:24:27;8.30;1.00
9973;DHT22;5027;53.560;10.062;2023-02-28T04:26:55;8.30;1.00
9973;DHT22;5027;53.560;10.062;2023-02-28T04:29:28;8.20;1.00
9973;DHT22;5027;53.560;10.062;2023-02-28T04:31:55;8.30;1.00
9973;DHT22;5027;53.560;10.062;2023-02-28T04:34:25;8.30;1.00
9973;DHT22;5027;53.560;10.062;2023-02-28T04:36:53;8.20;1.00
9973;DHT22;5027;53.560;10.062;2023-02-28T04:39:38;8.20;1.00
9973;DHT22;5027;53.560;10.062;2023-02-28T04:42:05;8.20;1.00
9973;DHT22;5027;53.560;10.062;2023-02-28T04:44:32;8.10;1.00
9973;DHT22;5027;53.560;10.062;2023-02-28T04:46:59;8.20;1.00
9973;DHT22;5027;53.560;10.062;2023-02-28T04:49:25;8.20;1.00
9973;DHT22;5027;53.560;10.062;2023-02-28T04:51:52;8.20;1.00
9973;DHT22;5027;53.560;10.062;2023-02-28T04:54:19;8.10;1.00
9973;DHT22;5027;53.560;10.062;2023-02-28T04:56:46;8.10;1.00
9973;DHT22;5027;53.560;10.062;2023-02-28T04:59:16;8.10;1.00
9973;DHT22;5027;53.560;10.062;2023-02-28T05:01:46;8.10;1.00
9973;DHT22;5027;53.560;10.062;2023-02-28T05:04:13;8.10;1.00
9973;DHT22;5027;53.560;10.062;2023-02-28T05:06:40;8.10;1.00
9973;DHT22;5027;53.560;10.062;2023-02-28T05:09:06;8.10;1.00
9973;DHT22;5027;53.560;10.062;2023-02-28T05:11:34;8.10;1.00
9973;DHT22;5027;53.560;10.062;2023-02-28T05:14:02;8.10;1.00
9973;DHT22;5027;53.560;10.062;2023-02-28T05:16:31;8.00;1.00
9973;DHT22;5027;53.560;10.062;2023-02-28T05:18:58;8.10;1.00
9973;DHT22;5027;53.560;10.062;2023-02-28T05:21:31;8.00;1.00
9973;DHT22;5027;53.560;10.062;2023-02-28T05:24:01;8.00;1.00
9973;DHT22;5027;53.560;10.062;2023-02-28T05:26:28;8.00;1.00
9973;DHT22;5027;53.560;10.062;2023-02-28T05:28:55;8.00;1.00
9973;DHT22;5027;53.560;10.062;2023-02-28T05:31:23;8.00;1.00
9973;DHT22;5027;53.560;10.062;2023-02-28T05:33:49;8.00;1.00
9973;DHT22;5027;53.560;10.062;2023-02-28T05:36:16;8.00;1.00
9973;DHT22;5027;53.560;10.062;2023-02-28T05:38:45;8.00;1.00
9973;DHT22;5027;53.560;10.062;2023-02-28T05:41:11;7.90;1.00
9973;DHT22;5027;53.560;10.062;2023-02-28T05:43:38;8.00;1.00
9973;DHT22;5027;53.560;10.062;2023-02-28T05:46:07;8.00;1.00
9973;DHT22;5027;53.560;10.062;2023-02-28T05:48:35;7.90;1.00
9973;DHT22;5027;53.560;10.062;2023-02-28T05:51:03;7.90;1.00
9973;DHT22;5027;53.560;10.062;2023-02-28T05:53:30;7.90;1.00
9973;DHT22;5027;53.560;10.062;2023-02-28T05:55:57;7.90;1.00
9973;DHT22;5027;53.560;10.062;2023-02-28T05:58:24;7.80;1.00
9973;DHT22;5027;53.560;10.062;2023-02-28T06:00:58;7.90;1.00
9973;DHT22;5027;53.560;10.062;2023-02-28T06:03:25;7.90;1.00
9973;DHT22;5027;53.560;10.062;2023-02-28T06:05:51;7.90;1.00
9973;DHT22;5027;53.560;10.062;2023-02-28T06:08:18;7.80;1.00
9973;DHT22;5027;53.560;10.062;2023-02-28T06:10:45;7.80;1.00
9973;DHT22;5027;53.560;10.062;2023-02-28T06:13:12;7.80;1.00
9973;DHT22;5027;53.560;10.062;2023-02-28T06:15:39;7.80;1.00
9973;DHT22;5027;53.560;10.062;2023-02-28T06:18:06;7.80;1.00
9973;DHT22;5027;53.560;10.062;2023-02-28T06:20:33;7.80;1.00
9973;DHT22;5027;53.560;10.062;2023-02-28T06:23:00;7.80;1.00
9973;DHT22;5027;53.560;10.062;2023-02-28T06:25:28;7.80;1.00
9973;DHT22;5027;53.560;10.062;2023-02-28T06:27:55;7.70;1.00
9973;DHT22;5027;53.560;10.062;2023-02-28T06:30:22;7.80;1.00
9973;DHT22;5027;53.560;10.062;2023-02-28T06:32:54;7.80;1.00
9973;DHT22;5027;53.560;10.062;2023-02-28T06:35:22;7.80;1.00
9973;DHT22;5027;53.560;10.062;2023-02-28T06:37:49;7.80;1.00
9973;DHT22;5027;53.560;10.062;2023-02-28T06:40:15;7.70;1.00
9973;DHT22;5027;53.560;10.062;2023-02-28T06:42:42;7.80;1.00
9973;DHT22;5027;53.560;10.062;2023-02-28T06:45:10;7.80;1.00
9973;DHT22;5027;53.560;10.062;2023-02-28T06:47:40;7.70;1.00
9973;DHT22;5027;53.560;10.062;2023-02-28T06:50:09;7.80;1.00
9973;DHT22;5027;53.560;10.062;2023-02-28T06:52:37;7.80;1.00
9973;DHT22;5027;53.560;10.062;2023-02-28T06:55:07;7.70;1.00
9973;DHT22;5027;53.560;10.062;2023-02-28T06:57:35;7.70;1.00
9973;DHT22;5027;53.560;10.062;2023-02-28T07:00:08;7.70;1.00
9973;DHT22;5027;53.560;10.062;2023-02-28T07:02:38;7.70;1.00
9973;DHT22;5027;53.560;10.062;2023-02-28T07:05:05;7.80;1.00
9973;DHT22;5027;53.560;10.062;2023-02-28T07:07:32;7.70;1.00
9973;DHT22;5027;53.560;10.062;2023-02-28T07:09:59;7.80;1.00
9973;DHT22;5027;53.560;10.062;2023-02-28T07:12:26;7.80;1.00
9973;DHT22;5027;53.560;10.062;2023-02-28T07:14:53;7.70;1.00
9973;DHT22;5027;53.560;10.062;2023-02-28T07:17:20;7.80;1.00
9973;DHT22;5027;53.560;10.062;2023-02-28T07:19:47;7.80;1.00
9973;DHT22;5027;53.560;10.062;2023-02-28T07:22:14;7.80;1.00
9973;DHT22;5027;53.560;10.062;2023-02-28T07:24:41;7.80;1.00
9973;DHT22;5027;53.560;10.062;2023-02-28T07:27:08;7.80;1.00
9973;DHT22;5027;53.560;10.062;2023-02-28T07:29:34;7.80;1.00
9973;DHT22;5027;53.560;10.062;2023-02-28T07:32:01;7.80;1.00
9973;DHT22;5027;53.560;10.062;2023-02-28T07:34:28;7.80;1.00
9973;DHT22;5027;53.560;10.062;2023-02-28T07:36:54;7.80;1.00
9973;DHT22;5027;53.560;10.062;2023-02-28T07:39:21;7.80;1.00
9973;DHT22;5027;53.560;10.062;2023-02-28T07:41:48;7.90;1.00
9973;DHT22;5027;53.560;10.062;2023-02-28T07:44:15;7.80;1.00
9973;DHT22;5027;53.560;10.062;2023-02-28T07:46:44;7.90;1.00
9973;DHT22;5027;53.560;10.062;2023-02-28T07:49:13;7.90;1.00
9973;DHT22;5027;53.560;10.062;2023-02-28T07:51:40;7.90;1.00
9973;DHT22;5027;53.560;10.062;2023-02-28T07:54:06;7.90;1.00
9973;DHT22;5027;53.560;10.062;2023-02-28T07:56:34;8.00;1.00
9973;DHT22;5027;53.560;10.062;2023-02-28T07:59:00;7.90;1.00
9973;DHT22;5027;53.560;10.062;2023-02-28T08:01:28;8.00;1.00
9973;DHT22;5027;53.560;10.062;2023-02-28T08:03:55;8.00;1.00
9973;DHT22;5027;53.560;10.062;2023-02-28T08:06:24;7.90;1.00
9973;DHT22;5027;53.560;10.062;2023-02-28T08:08:52;8.00;1.00
9973;DHT22;5027;53.560;10.062;2023-02-28T08:11:19;8.00;1.00
9973;DHT22;5027;53.560;10.062;2023-02-28T08:13:45;8.10;1.00
9973;DHT22;5027;53.560;10.062;2023-02-28T08:16:13;8.10;1.00
9973;DHT22;5027;53.560;10.062;2023-02-28T08:18:54;8.20;1.00
9973;DHT22;5027;53.560;10.062;2023-02-28T08:21:39;8.40;1.00
9973;DHT22;5027;53.560;10.062;2023-02-28T08:24:06;8.40;1.00
9973;DHT22;5027;53.560;10.062;2023-02-28T08:26:33;8.40;1.00
9973;DHT22;5027;53.560;10.062;2023-02-28T08:29:00;8.40;1.00
9973;DHT22;5027;53.560;10.062;2023-02-28T08:31:27;8.40;1.00
9973;DHT22;5027;53.560;10.062;2023-02-28T08:33:54;8.40;1.00
9973;DHT22;5027;53.560;10.062;2023-02-28T08:36:25;8.50;1.00
9973;DHT22;5027;53.560;10.062;2023-02-28T08:38:52;8.50;1.00
9973;DHT22;5027;53.560;10.062;2023-02-28T08:41:19;8.60;1.00
9973;DHT22;5027;53.560;10.062;2023-02-28T08:43:45;8.50;1.00
9973;DHT22;5027;53.560;10.062;2023-02-28T08:46:13;8.60;1.00
9973;DHT22;5027;53.560;10.062;2023-02-28T08:48:40;8.70;1.00
9973;DHT22;5027;53.560;10.062;2023-02-28T08:51:11;8.60;1.00
9973;DHT22;5027;53.560;10.062;2023-02-28T08:53:39;8.70;1.00
9973;DHT22;5027;53.560;10.062;2023-02-28T08:56:12;8.90;1.00
9973;DHT22;5027;53.560;10.062;2023-02-28T08:58:39;8.90;1.00
9973;DHT22;5027;53.560;10.062;2023-02-28T09:01:14;8.90;1.00
9973;DHT22;5027;53.560;10.062;2023-02-28T09:03:42;8.80;1.00
9973;DHT22;5027;53.560;10.062;2023-02-28T09:06:10;8.80;1.00
9973;DHT22;5027;53.560;10.062;2023-02-28T09:08:38;8.70;1.00
9973;DHT22;5027;53.560;10.062;2023-02-28T09:11:05;8.70;1.00
9973;DHT22;5027;53.560;10.062;2023-02-28T09:13:32;8.70;1.00
9973;DHT22;5027;53.560;10.062;2023-02-28T09:16:00;8.80;1.00
9973;DHT22;5027;53.560;10.062;2023-02-28T09:18:27;8.90;1.00
9973;DHT22;5027;53.560;10.062;2023-02-28T09:20:54;8.90;1.00
9973;DHT22;5027;53.560;10.062;2023-02-28T09:23:21;9.00;1.00
9973;DHT22;5027;53.560;10.062;2023-02-28T09:25:50;9.00;1.00
9973;DHT22;5027;53.560;10.062;2023-02-28T09:28:17;9.10;1.00
9973;DHT22;5027;53.560;10.062;2023-02-28T09:30:46;9.20;1.00
9973;DHT22;5027;53.560;10.062;2023-02-28T09:33:13;9.20;1.00
9973;DHT22;5027;53.560;10.062;2023-02-28T09:35:40;9.10;1.00
9973;DHT22;5027;53.560;10.062;2023-02-28T09:38:07;9.20;1.00
9973;DHT22;5027;53.560;10.062;2023-02-28T09:40:44;9.20;1.00
9973;DHT22;5027;53.560;10.062;2023-02-28T09:43:14;9.30;1.00
9973;DHT22;5027;53.560;10.062;2023-02-28T09:45:44;9.40;1.00
9973;DHT22;5027;53.560;10.062;2023-02-28T09:48:25;9.40;1.00
9973;DHT22;5027;53.560;10.062;2023-02-28T09:51:00;9.40;1.00
9973;DHT22;5027;53.560;10.062;2023-02-28T09:53:31;9.40;1.00
9973;DHT22;5027;53.560;10.062;2023-02-28T09:56:13;9.50;1.00
9973;DHT22;5027;53.560;10.062;2023-02-28T09:59:05;9.60;1.00
9973;DHT22;5027;53.560;10.062;2023-02-28T10:02:14;9.40;1.00
9973;DHT22;5027;53.560;10.062;2023-02-28T10:04:59;9.50;1.00
9973;DHT22;5027;53.560;10.062;2023-02-28T10:07:41;9.50;1.00
9973;DHT22;5027;53.560;10.062;2023-02-28T10:10:29;9.70;1.00
9973;DHT22;5027;53.560;10.062;2023-02-28T10:13:00;9.60;1.00
9973;DHT22;5027;53.560;10.062;2023-02-28T10:15:31;9.60;1.00
9973;DHT22;5027;53.560;10.062;2023-02-28T10:18:02;9.60;1.00
9973;DHT22;5027;53.560;10.062;2023-02-28T10:20:38;9.50;1.00
9973;DHT22;5027;53.560;10.062;2023-02-28T10:23:25;9.50;1.00
9973;DHT22;5027;53.560;10.062;2023-02-28T10:26:05;9.60;1.00
9973;DHT22;5027;53.560;10.062;2023-02-28T10:28:36;9.80;1.00
9973;DHT22;5027;53.560;10.062;2023-02-28T10:31:18;10.00;1.00
9973;DHT22;5027;53.560;10.062;2023-02-28T10:33:45;10.30;1.00
9973;DHT22;5027;53.560;10.062;2023-02-28T10:36:15;10.50;1.00
9973;DHT22;5027;53.560;10.062;2023-02-28T10:38:44;10.60;1.00
9973;DHT22;5027;53.560;10.062;2023-02-28T10:41:26;10.60;1.00
9973;DHT22;5027;53.560;10.062;2023-02-28T10:44:22;10.50;1.00
9973;DHT22;5027;53.560;10.062;2023-02-28T10:46:50;10.60;1.00
9973;DHT22;5027;53.560;10.062;2023-02-28T10:49:22;10.70;1.00
9973;DHT22;5027;53.560;10.062;2023-02-28T10:51:55;10.80;1.00
9973;DHT22;5027;53.560;10.062;2023-02-28T10:54:32;11.00;1.00
9973;DHT22;5027;53.560;10.062;2023-02-28T10:57:09;11.10;1.00
9973;DHT22;5027;53.560;10.062;2023-02-28T10:59:39;11.10;1.00
9973;DHT22;5027;53.560;10.062;2023-02-28T11:02:29;10.90;1.00
9973;DHT22;5027;53.560;10.062;2023-02-28T11:04:56;11.00;1.00
9973;DHT22;5027;53.560;10.062;2023-02-28T11:07:25;11.00;1.00
9973;DHT22;5027;53.560;10.062;2023-02-28T11:09:57;10.90;1.00
9973;DHT22;5027;53.560;10.062;2023-02-28T11:12:34;10.90;1.00
9973;DHT22;5027;53.560;10.062;2023-02-28T11:20:59;11.00;1.00
9973;DHT22;5027;53.560;10.062;2023-02-28T11:23:30;11.10;1.00
9973;DHT22;5027;53.560;10.062;2023-02-28T11:26:00;11.10;1.00
9973;DHT22;5027;53.560;10.062;2023-02-28T11:28:35;11.20;1.00
9973;DHT22;5027;53.560;10.062;2023-02-28T11:36:15;11.30;1.00
9973;DHT22;5027;53.560;10.062;2023-02-28T11:38:47;11.50;1.00
9973;DHT22;5027;53.560;10.062;2023-02-28T11:41:44;11.50;1.00
9973;DHT22;5027;53.560;10.062;2023-02-28T11:44:30;11.50;1.00
9973;DHT22;5027;53.560;10.062;2023-02-28T11:47:07;11.50;1.00
9973;DHT22;5027;53.560;10.062;2023-02-28T11:49:49;11.50;1.00
9973;DHT22;5027;53.560;10.062;2023-02-28T11:52:35;11.60;1.00
9973;DHT22;5027;53.560;10.062;2023-02-28T11:55:18;11.60;1.00
9973;DHT22;5027;53.560;10.062;2023-02-28T12:03:16;11.80;1.00
9973;DHT22;5027;53.560;10.062;2023-02-28T12:08:24;12.00;1.00
9973;DHT22;5027;53.560;10.062;2023-02-28T12:11:19;12.10;1.00
9973;DHT22;5027;53.560;10.062;2023-02-28T12:16:44;12.10;1.00
9973;DHT22;5027;53.560;10.062;2023-02-28T12:19:20;12.10;1.00
9973;DHT22;5027;53.560;10.062;2023-02-28T12:22:05;12.30;1.00
9973;DHT22;5027;53.560;10.062;2023-02-28T12:27:13;12.30;1.00
9973;DHT22;5027;53.560;10.062;2023-02-28T12:29:52;12.20;1.00
9973;DHT22;5027;53.560;10.062;2023-02-28T12:32:31;12.30;1.00
9973;DHT22;5027;53.560;10.062;2023-02-28T12:35:20;12.30;1.00
9973;DHT22;5027;53.560;10.062;2023-02-28T12:38:17;12.30;1.00
9973;DHT22;5027;53.560;10.062;2023-02-28T12:41:05;12.40;1.00
9973;DHT22;5027;53.560;10.062;2023-02-28T12:43:40;12.60;1.00
9973;DHT22;5027;53.560;10.062;2023-02-28T12:46:21;12.80;1.00
9973;DHT22;5027;53.560;10.062;2023-02-28T12:48:55;12.60;1.00
9973;DHT22;5027;53.560;10.062;2023-02-28T12:51:24;12.60;1.00
9973;DHT22;5027;53.560;10.062;2023-02-28T12:56:44;12.70;1.00
9973;DHT22;5027;53.560;10.062;2023-02-28T12:59:34;12.80;1.00
9973;DHT22;5027;53.560;10.062;2023-02-28T13:02:26;12.80;1.00
9973;DHT22;5027;53.560;10.062;2023-02-28T13:10:19;12.90;1.00
9973;DHT22;5027;53.560;10.062;2023-02-28T13:12:51;12.80;1.00
9973;DHT22;5027;53.560;10.062;2023-02-28T13:15:27;12.70;1.00
9973;DHT22;5027;53.560;10.062;2023-02-28T13:17:58;12.80;1.00
9973;DHT22;5027;53.560;10.062;2023-02-28T13:20:29;13.00;1.00
9973;DHT22;5027;53.560;10.062;2023-02-28T13:22:57;12.90;1.00
9973;DHT22;5027;53.560;10.062;2023-02-28T13:28:02;13.00;1.00
9973;DHT22;5027;53.560;10.062;2023-02-28T13:33:34;12.90;1.00
9973;DHT22;5027;53.560;10.062;2023-02-28T13:38:42;13.20;1.00
9973;DHT22;5027;53.560;10.062;2023-02-28T13:49:23;13.20;1.00
9973;DHT22;5027;53.560;10.062;2023-02-28T13:57:23;13.20;1.00
9973;DHT22;5027;53.560;10.062;2023-02-28T14:00:26;13.10;1.00
9973;DHT22;5027;53.560;10.062;2023-02-28T14:06:18;13.20;1.00
9973;DHT22;5027;53.560;10.062;2023-02-28T14:08:58;13.20;1.00
9973;DHT22;5027;53.560;10.062;2023-02-28T14:11:37;13.20;1.00
9973;DHT22;5027;53.560;10.062;2023-02-28T14:14:05;13.10;1.00
9973;DHT22;5027;53.560;10.062;2023-02-28T14:16:39;13.20;1.00
9973;DHT22;5027;53.560;10.062;2023-02-28T14:19:28;13.10;1.00
9973;DHT22;5027;53.560;10.062;2023-02-28T14:22:18;13.20;1.00
9973;DHT22;5027;53.560;10.062;2023-02-28T14:25:22;13.30;1.00
9973;DHT22;5027;53.560;10.062;2023-02-28T14:36:26;13.70;1.00
9973;DHT22;5027;53.560;10.062;2023-02-28T14:39:00;13.50;76.30
9973;DHT22;5027;53.560;10.062;2023-02-28T14:41:36;13.30;75.80
9973;DHT22;5027;53.560;10.062;2023-02-28T14:44:23;13.20;75.30
9973;DHT22;5027;53.560;10.062;2023-02-28T14:47:01;13.30;73.80
9973;DHT22;5027;53.560;10.062;2023-02-28T14:49:37;13.30;75.40
9973;DHT22;5027;53.560;10.062;2023-02-28T14:52:15;13.50;74.70
9973;DHT22;5027;53.560;10.062;2023-02-28T14:54:44;13.60;73.60
9973;DHT22;5027;53.560;10.062;2023-02-28T14:57:26;13.50;74.20
9973;DHT22;5027;53.560;10.062;2023-02-28T15:00:14;13.50;75.00
9973;DHT22;5027;53.560;10.062;2023-02-28T15:02:43;13.50;74.70
9973;DHT22;5027;53.560;10.062;2023-02-28T15:07:36;13.30;76.10
9973;DHT22;5027;53.560;10.062;2023-02-28T15:10:29;13.20;75.60
9973;DHT22;5027;53.560;10.062;2023-02-28T15:12:59;13.30;75.30
9973;DHT22;5027;53.560;10.062;2023-02-28T15:18:47;13.20;75.00
9973;DHT22;5027;53.560;10.062;2023-02-28T15:21:18;13.20;75.50
9973;DHT22;5027;53.560;10.062;2023-02-28T15:23:53;13.20;75.60
9973;DHT22;5027;53.560;10.062;2023-02-28T15:26:24;13.20;75.70
9973;DHT22;5027;53.560;10.062;2023-02-28T15:28:59;13.20;75.70
9973;DHT22;5027;53.560;10.062;2023-02-28T15:31:29;13.10;75.50
9973;DHT22;5027;53.560;10.062;2023-02-28T15:34:18;13.10;75.10
9973;DHT22;5027;53.560;10.062;2023-02-28T15:36:47;13.30;75.00
9973;DHT22;5027;53.560;10.062;2023-02-28T15:39:26;13.30;74.70
9973;DHT22;5027;53.560;10.062;2023-02-28T15:42:18;13.30;74.60
9973;DHT22;5027;53.560;10.062;2023-02-28T15:44:45;13.00;75.40
9973;DHT22;5027;53.560;10.062;2023-02-28T15:47:21;13.00;76.50
9973;DHT22;5027;53.560;10.062;2023-02-28T15:49:52;12.90;76.70
9973;DHT22;5027;53.560;10.062;2023-02-28T15:52:24;12.90;76.50
9973;DHT22;5027;53.560;10.062;2023-02-28T15:54:52;12.90;77.60
9973;DHT22;5027;53.560;10.062;2023-02-28T15:57:23;12.80;77.30
9973;DHT22;5027;53.560;10.062;2023-02-28T15:59:54;12.70;77.70
9973;DHT22;5027;53.560;10.062;2023-02-28T16:02:34;12.70;78.40
9973;DHT22;5027;53.560;10.062;2023-02-28T16:07:43;12.50;78.00
9973;DHT22;5027;53.560;10.062;2023-02-28T16:10:12;12.40;78.50
9973;DHT22;5027;53.560;10.062;2023-02-28T16:12:41;12.40;78.60
9973;DHT22;5027;53.560;10.062;2023-02-28T16:15:17;12.40;78.50
9973;DHT22;5027;53.560;10.062;2023-02-28T16:17:44;12.40;79.00
9973;DHT22;5027;53.560;10.062;2023-02-28T16:20:18;12.40;79.30
9973;DHT22;5027;53.560;10.062;2023-02-28T16:22:45;12.40;78.60
9973;DHT22;5027;53.560;10.062;2023-02-28T16:25:18;12.40;78.70
9973;DHT22;5027;53.560;10.062;2023-02-28T16:27:49;12.40;79.10
9973;DHT22;5027;53.560;10.062;2023-02-28T16:30:25;12.40;79.30
9973;DHT22;5027;53.560;10.062;2023-02-28T16:32:54;12.40;79.70
9973;DHT22;5027;53.560;10.062;2023-02-28T16:35:22;12.40;79.30
9973;DHT22;5027;53.560;10.062;2023-02-28T16:37:50;12.30;79.00
9973;DHT22;5027;53.560;10.062;2023-02-28T16:40:21;12.30;79.40
9973;DHT22;5027;53.560;10.062;2023-02-28T16:42:53;12.30;79.60
9973;DHT22;5027;53.560;10.062;2023-02-28T16:45:24;12.30;79.40
9973;DHT22;5027;53.560;10.062;2023-02-28T16:47:55;12.30;79.80
9973;DHT22;5027;53.560;10.062;2023-02-28T16:50:28;12.30;80.20
9973;DHT22;5027;53.560;10.062;2023-02-28T16:52:55;12.20;80.20
9973;DHT22;5027;53.560;10.062;2023-02-28T16:55:24;12.10;79.80
9973;DHT22;5027;53.560;10.062;2023-02-28T16:57:54;12.10;80.10
9973;DHT22;5027;53.560;10.062;2023-02-28T17:00:21;12.10;80.90
9973;DHT22;5027;53.560;10.062;2023-02-28T17:02:48;12.10;81.00
9973;DHT22;5027;53.560;10.062;2023-02-28T17:05:23;12.00;80.90
9973;DHT22;5027;53.560;10.062;2023-02-28T17:07:50;12.00;80.90
9973;DHT22;5027;53.560;10.062;2023-02-28T17:10:22;12.00;81.00
9973;DHT22;5027;53.560;10.062;2023-02-28T17:12:49;11.90;80.90
9973;DHT22;5027;53.560;10.062;2023-02-28T17:15:18;12.00;81.00
9973;DHT22;5027;53.560;10.062;2023-02-28T17:17:46;11.90;81.30
9973;DHT22;5027;53.560;10.062;2023-02-28T17:20:18;11.90;81.80
9973;DHT22;5027;53.560;10.062;2023-02-28T17:22:49;12.00;81.50
9973;DHT22;5027;53.560;10.062;2023-02-28T17:25:16;11.90;81.80
9973;DHT22;5027;53.560;10.062;2023-02-28T17:27:43;11.90;81.50
9973;DHT22;5027;53.560;10.062;2023-02-28T17:30:14;11.90;82.10
9973;DHT22;5027;53.560;10.062;2023-02-28T17:32:41;12.00;82.10
9973;DHT22;5027;53.560;10.062;2023-02-28T17:35:08;12.00;81.90
9973;DHT22;5027;53.560;10.062;2023-02-28T17:37:35;12.00;82.30
9973;DHT22;5027;53.560;10.062;2023-02-28T17:40:03;12.00;82.00
9973;DHT22;5027;53.560;10.062;2023-02-28T17:42:30;11.90;82.60
9973;DHT22;5027;53.560;10.062;2023-02-28T17:44:56;11.80;83.40
9973;DHT22;5027;53.560;10.062;2023-02-28T17:47:23;11.80;83.20
9973;DHT22;5027;53.560;10.062;2023-02-28T17:49:50;11.80;82.70
9973;DHT22;5027;53.560;10.062;2023-02-28T17:52:16;11.70;82.50
9973;DHT22;5027;53.560;10.062;2023-02-28T17:54:43;11.60;1.00
9973;DHT22;5027;53.560;10.062;2023-02-28T17:57:15;11.60;1.00
9973;DHT22;5027;53.560;10.062;2023-02-28T17:59:42;11.50;1.00
9973;DHT22;5027;53.560;10.062;2023-02-28T18:02:12;11.40;1.00
9973;DHT22;5027;53.560;10.062;2023-02-28T18:04:39;11.40;1.00
9973;DHT22;5027;53.560;10.062;2023-02-28T18:07:09;11.40;1.00
9973;DHT22;5027;53.560;10.062;2023-02-28T18:09:37;11.40;1.00
9973;DHT22;5027;53.560;10.062;2023-02-28T18:12:04;11.40;1.00
9973;DHT22;5027;53.560;10.062;2023-02-28T18:14:31;11.40;1.00